createdAt,value
2023-01-09T00:00:38.823Z,95861.44
2023-01-09T00:03:05.350Z,95848.22
2023-01-09T00:05:31.643Z,95841.88
2023-01-09T00:07:57.864Z,95837.91
2023-01-09T00:10:24.296Z,95834.25
2023-01-09T00:12:50.616Z,95834.00
2023-01-09T00:15:16.986Z,95826.56
2023-01-09T00:17:43.275Z,95825.28
2023-01-09T00:20:09.870Z,95819.75
2023-01-09T00:22:36.128Z,95821.38
2023-01-09T00:25:02.365Z,95807.84
2023-01-09T00:27:28.695Z,95811.88
2023-01-09T00:29:54.984Z,95806.63
2023-01-09T00:32:22.345Z,95808.78
2023-01-09T00:34:48.610Z,95803.75
2023-01-09T00:37:14.971Z,95800.84
2023-01-09T00:39:41.215Z,95798.75
2023-01-09T00:42:07.870Z,95797.16
2023-01-09T00:44:34.151Z,95796.91
2023-01-09T00:47:00.413Z,95797.19
2023-01-09T00:49:27.015Z,95805.72
2023-01-09T00:51:53.737Z,95808.66
2023-01-09T00:54:21.292Z,95807.38
2023-01-09T00:56:47.714Z,95801.53
2023-01-09T00:59:14.363Z,95805.81
2023-01-09T01:01:40.756Z,95801.59
2023-01-09T01:04:07.030Z,95796.84
2023-01-09T01:06:33.267Z,95796.31
2023-01-09T01:08:59.583Z,95805.34
2023-01-09T01:11:25.905Z,95808.56
2023-01-09T01:13:52.155Z,95805.41
2023-01-09T01:16:18.481Z,95807.53
2023-01-09T01:18:44.818Z,95807.03
2023-01-09T01:21:11.088Z,95805.44
2023-01-09T01:23:37.394Z,95806.00
2023-01-09T01:26:03.644Z,95806.56
2023-01-09T01:28:29.909Z,95805.25
2023-01-09T01:30:56.210Z,95805.81
2023-01-09T01:33:22.506Z,95808.75
2023-01-09T01:35:48.762Z,95808.25
2023-01-09T01:38:15.017Z,95811.19
2023-01-09T01:40:41.511Z,95799.25
2023-01-09T01:43:07.815Z,95799.81
2023-01-09T01:45:34.094Z,95799.28
2023-01-09T01:48:03.529Z,95797.69
2023-01-09T01:50:29.817Z,95808.06
2023-01-09T01:52:56.130Z,95801.47
2023-01-09T01:55:22.415Z,95784.22
2023-01-09T01:57:48.679Z,95785.59
2023-01-09T02:00:14.956Z,95783.50
2023-01-09T02:02:41.257Z,95793.59
2023-01-09T02:05:07.649Z,95779.00
2023-01-09T02:07:33.925Z,95786.72
2023-01-09T02:10:00.194Z,95781.97
2023-01-09T02:12:26.479Z,95782.53
2023-01-09T02:14:52.717Z,95792.63
2023-01-09T02:17:18.996Z,95782.53
2023-01-09T02:19:45.318Z,95768.78
2023-01-09T02:22:12.812Z,95770.91
2023-01-09T02:24:39.122Z,95778.34
2023-01-09T02:27:05.378Z,95764.03
2023-01-09T02:29:31.641Z,95764.31
2023-01-09T02:31:57.957Z,95761.41
2023-01-09T02:34:24.379Z,95752.91
2023-01-09T02:36:50.712Z,95755.06
2023-01-09T02:39:16.981Z,95760.91
2023-01-09T02:41:43.235Z,95757.75
2023-01-09T02:44:09.543Z,95743.19
2023-01-09T02:46:35.790Z,95747.16
2023-01-09T02:49:02.325Z,95745.88
2023-01-09T02:51:28.579Z,95740.06
2023-01-09T02:53:54.852Z,95731.84
2023-01-09T02:56:21.089Z,95730.53
2023-01-09T02:58:47.347Z,95737.97
2023-01-09T03:01:14.914Z,95727.63
2023-01-09T03:03:41.278Z,95729.00
2023-01-09T03:06:07.559Z,95723.16
2023-01-09T03:08:33.783Z,95720.78
2023-01-09T03:11:00.011Z,95722.13
2023-01-09T03:13:26.265Z,95725.03
2023-01-09T03:15:52.521Z,95726.13
2023-01-09T03:18:18.810Z,95720.28
2023-01-09T03:20:47.856Z,95727.72
2023-01-09T03:23:14.122Z,95715.53
2023-01-09T03:25:40.398Z,95706.28
2023-01-09T03:28:06.675Z,95707.31
2023-01-09T03:30:32.957Z,95709.19
2023-01-09T03:33:00.381Z,95708.69
2023-01-09T03:35:26.639Z,95702.56
2023-01-09T03:37:52.915Z,95706.59
2023-01-09T03:40:19.289Z,95715.31
2023-01-09T03:42:45.561Z,95710.28
2023-01-09T03:45:11.839Z,95709.81
2023-01-09T03:47:38.081Z,95710.97
2023-01-09T03:50:04.338Z,95708.94
2023-01-09T03:52:30.622Z,95712.13
2023-01-09T03:54:56.887Z,95710.56
2023-01-09T03:57:23.176Z,95706.34
2023-01-09T03:59:52.583Z,95717.97
2023-01-09T04:02:21.805Z,95716.94
2023-01-09T04:04:48.058Z,95721.41
2023-01-09T04:07:14.323Z,95716.38
2023-01-09T04:09:40.540Z,95718.50
2023-01-09T04:12:06.815Z,95719.28
2023-01-09T04:14:33.085Z,95722.19
2023-01-09T04:16:59.391Z,95723.78
2023-01-09T04:19:26.204Z,95734.66
2023-01-09T04:21:52.931Z,95730.41
2023-01-09T04:24:19.435Z,95739.16
2023-01-09T04:26:45.898Z,95732.53
2023-01-09T04:29:12.426Z,95749.22
2023-01-09T04:31:38.735Z,95752.41
2023-01-09T04:34:05.705Z,95761.66
2023-01-09T04:36:33.520Z,95766.94
2023-01-09T04:38:59.987Z,95775.16
2023-01-09T04:41:26.284Z,95777.81
2023-01-09T04:43:53.324Z,95784.94
2023-01-09T04:46:19.580Z,95788.66
2023-01-09T04:48:47.085Z,95794.50
2023-01-09T04:51:14.081Z,95788.94
2023-01-09T04:53:40.378Z,95789.75
2023-01-09T04:56:08.228Z,95799.28
2023-01-09T04:58:34.476Z,95817.53
2023-01-09T05:01:01.369Z,95821.75
2023-01-09T05:03:27.647Z,95821.75
2023-01-09T05:05:53.922Z,95821.22
2023-01-09T05:08:20.252Z,95822.84
2023-01-09T05:10:46.488Z,95837.91
2023-01-09T05:13:13.836Z,95847.72
2023-01-09T05:15:40.149Z,95854.06
2023-01-09T05:18:06.397Z,95847.72
2023-01-09T05:20:32.757Z,95849.31
2023-01-09T05:22:58.993Z,95849.31
2023-01-09T05:25:25.377Z,95844.53
2023-01-09T05:27:51.614Z,95845.59
2023-01-09T05:30:18.959Z,95853.28
2023-01-09T05:32:45.959Z,95853.81
2023-01-09T05:35:12.222Z,95859.38
2023-01-09T05:37:38.429Z,95855.13
2023-01-09T05:40:05.519Z,95850.91
2023-01-09T05:42:31.762Z,95847.44
2023-01-09T05:44:58.867Z,95835.53
2023-01-09T05:47:25.177Z,95851.41
2023-01-09T05:49:51.444Z,95862.53
2023-01-09T05:52:17.885Z,95852.47
2023-01-09T05:54:44.136Z,95860.13
2023-01-09T05:57:12.076Z,95858.03
2023-01-09T05:59:38.314Z,95862.78
2023-01-09T06:02:04.584Z,95871.75
2023-01-09T06:04:30.900Z,95866.19
2023-01-09T06:06:57.172Z,95873.84
2023-01-09T06:09:23.459Z,95867.50
2023-01-09T06:11:49.716Z,95872.00
2023-01-09T06:14:15.951Z,95875.16
2023-01-09T06:16:42.889Z,95883.88
2023-01-09T06:19:10.178Z,95887.84
2023-01-09T06:21:37.217Z,95898.94
2023-01-09T06:24:03.579Z,95910.03
2023-01-09T06:26:32.067Z,95908.72
2023-01-09T06:28:58.392Z,95904.47
2023-01-09T06:31:24.722Z,95914.28
2023-01-09T06:33:51.484Z,95914.31
2023-01-09T06:36:18.227Z,95928.69
2023-01-09T06:38:44.524Z,95951.53
2023-01-09T06:41:11.189Z,95957.91
2023-01-09T06:43:39.432Z,95973.25
2023-01-09T06:46:06.280Z,95976.94
2023-01-09T06:48:34.271Z,95979.28
2023-01-09T06:51:02.024Z,95978.44
2023-01-09T06:53:28.325Z,95976.28
2023-01-09T06:55:54.599Z,95982.38
2023-01-09T06:58:20.956Z,95972.78
2023-01-09T07:00:47.492Z,95978.31
2023-01-09T07:03:14.200Z,95984.09
2023-01-09T07:05:42.839Z,95976.91
2023-01-09T07:08:09.065Z,95989.13
2023-01-09T07:10:35.723Z,95993.59
2023-01-09T07:13:03.183Z,95990.91
2023-01-09T07:15:29.470Z,96006.53
2023-01-09T07:17:55.740Z,96009.97
2023-01-09T07:20:22.049Z,96016.31
2023-01-09T07:22:48.279Z,96029.56
2023-01-09T07:25:14.541Z,96025.31
2023-01-09T07:27:40.772Z,96026.84
2023-01-09T07:30:07.332Z,96024.44
2023-01-09T07:32:33.590Z,96036.91
2023-01-09T07:35:00.533Z,96035.03
2023-01-09T07:37:26.840Z,96041.09
2023-01-09T07:39:53.960Z,96037.34
2023-01-09T07:42:20.513Z,96038.88
2023-01-09T07:44:46.781Z,96052.13
2023-01-09T07:47:12.996Z,96052.13
2023-01-09T07:49:39.997Z,96056.88
2023-01-09T07:52:06.879Z,96063.25
2023-01-09T07:54:35.165Z,96058.16
2023-01-09T07:57:01.518Z,96062.63
2023-01-09T07:59:28.608Z,96066.34
2023-01-09T08:01:57.465Z,96073.75
2023-01-09T08:04:28.335Z,96084.88
2023-01-09T08:06:56.511Z,96084.81
2023-01-09T08:09:24.150Z,96085.84
2023-01-09T08:11:52.567Z,96086.88
2023-01-09T08:14:18.909Z,96086.63
2023-01-09T08:16:45.679Z,96083.38
2023-01-09T08:19:13.023Z,96085.78
2023-01-09T08:21:39.992Z,96094.78
2023-01-09T08:24:06.292Z,96103.78
2023-01-09T08:26:32.548Z,96110.38
2023-01-09T08:29:00.403Z,96105.84
2023-01-09T08:31:27.193Z,96121.81
2023-01-09T08:33:54.189Z,96114.91
2023-01-09T08:36:20.652Z,96110.66
2023-01-09T08:38:46.958Z,96117.84
2023-01-09T08:41:13.237Z,96112.81
2023-01-09T08:43:39.516Z,96128.78
2023-01-09T08:46:07.685Z,96120.78
2023-01-09T08:48:34.511Z,96118.13
2023-01-09T08:51:00.787Z,96111.72
2023-01-09T08:53:27.098Z,96124.78
2023-01-09T08:55:53.351Z,96122.38
2023-01-09T08:58:19.740Z,96120.78
2023-01-09T09:00:46.123Z,96124.53
2023-01-09T09:03:12.389Z,96124.53
2023-01-09T09:05:38.655Z,96121.34
2023-01-09T09:08:06.462Z,96121.34
2023-01-09T09:10:32.711Z,96120.28
2023-01-09T09:12:59.378Z,96113.88
2023-01-09T09:15:26.420Z,96113.59
2023-01-09T09:17:52.733Z,96123.97
2023-01-09T09:20:19.203Z,96118.66
2023-01-09T09:22:45.718Z,96121.53
2023-01-09T09:25:13.574Z,96115.94
2023-01-09T09:27:41.331Z,96113.00
2023-01-09T09:30:07.625Z,96115.41
2023-01-09T09:32:35.652Z,96120.44
2023-01-09T09:35:02.247Z,96115.91
2023-01-09T09:37:28.582Z,96124.41
2023-01-09T09:39:54.909Z,96116.94
2023-01-09T09:42:21.181Z,96124.66
2023-01-09T09:44:53.334Z,96122.00
2023-01-09T09:47:20.939Z,96117.47
2023-01-09T09:49:47.235Z,96127.56
2023-01-09T09:52:13.499Z,96126.69
2023-01-09T09:54:42.946Z,96134.69
2023-01-09T09:57:09.211Z,96133.91
2023-01-09T09:59:36.059Z,96128.06
2023-01-09T10:02:02.369Z,96140.28
2023-01-09T10:04:28.675Z,96143.75
2023-01-09T10:06:54.914Z,96140.28
2023-01-09T10:09:21.209Z,96142.97
2023-01-09T10:11:47.501Z,96141.38
2023-01-09T10:14:23.591Z,96148.28
2023-01-09T10:16:50.384Z,96145.34
2023-01-09T10:19:17.020Z,96138.66
2023-01-09T10:21:44.290Z,96137.34
2023-01-09T10:24:10.582Z,96136.56
2023-01-09T10:26:37.003Z,96136.84
2023-01-09T10:29:03.260Z,96136.06
2023-01-09T10:31:30.601Z,96128.34
2023-01-09T10:33:56.949Z,96128.59
2023-01-09T10:36:23.931Z,96134.22
2023-01-09T10:38:50.195Z,96131.56
2023-01-09T10:41:16.470Z,96135.81
2023-01-09T10:43:43.139Z,96132.34
2023-01-09T10:46:14.081Z,96140.34
2023-01-09T10:48:40.373Z,96136.59
2023-01-09T10:51:06.821Z,96133.69
2023-01-09T10:53:33.814Z,96133.91
2023-01-09T10:56:00.086Z,96128.03
2023-01-09T10:58:26.345Z,96131.97
2023-01-09T11:00:52.992Z,96128.25
2023-01-09T11:03:19.393Z,96130.63
2023-01-09T11:05:45.707Z,96128.47
2023-01-09T11:08:12.062Z,96120.72
2023-01-09T11:10:38.412Z,96120.16
2023-01-09T11:13:04.659Z,96113.75
2023-01-09T11:15:31.012Z,96120.66
2023-01-09T11:17:58.033Z,96119.31
2023-01-09T11:20:24.333Z,96123.28
2023-01-09T11:22:50.570Z,96127.78
2023-01-09T11:25:16.862Z,96125.13
2023-01-09T11:27:44.046Z,96128.59
2023-01-09T11:30:11.037Z,96128.59
2023-01-09T11:32:37.519Z,96135.50
2023-01-09T11:35:03.782Z,96134.72
2023-01-09T11:37:30.112Z,96130.97
2023-01-09T11:39:57.512Z,96129.91
2023-01-09T11:42:23.847Z,96134.72
2023-01-09T11:44:50.075Z,96128.31
2023-01-09T11:47:16.392Z,96127.25
2023-01-09T11:49:42.696Z,96126.16
2023-01-09T11:52:08.961Z,96125.88
2023-01-09T11:54:36.814Z,96123.50
2023-01-09T11:57:03.129Z,96117.38
2023-01-09T11:59:29.359Z,96119.25
2023-01-09T12:01:56.074Z,96123.50
2023-01-09T12:04:22.314Z,96117.88
2023-01-09T12:06:49.347Z,96115.22
2023-01-09T12:09:15.635Z,96126.69
2023-01-09T12:11:41.873Z,96126.16
2023-01-09T12:14:08.140Z,96126.16
2023-01-09T12:16:35.202Z,96124.59
2023-01-09T12:19:03.054Z,96127.25
2023-01-09T12:21:30.124Z,96128.81
2023-01-09T12:23:56.425Z,96121.13
2023-01-09T12:26:22.704Z,96129.13
2023-01-09T12:28:48.989Z,96124.84
2023-01-09T12:31:15.288Z,96120.31
2023-01-09T12:33:42.557Z,96115.00
2023-01-09T12:36:08.826Z,96123.50
2023-01-09T12:38:35.076Z,96112.03
2023-01-09T12:41:01.346Z,96123.50
2023-01-09T12:43:28.357Z,96109.59
2023-01-09T12:45:54.724Z,96105.59
2023-01-09T12:48:21.005Z,96113.53
2023-01-09T12:50:47.274Z,96114.09
2023-01-09T12:53:14.340Z,96120.72
2023-01-09T12:55:43.818Z,96119.09
2023-01-09T12:58:10.091Z,96111.88
2023-01-09T13:00:36.322Z,96116.81
2023-01-09T13:03:12.023Z,96116.56
2023-01-09T13:05:38.920Z,96122.50
2023-01-09T13:08:06.064Z,96127.59
2023-01-09T13:10:32.334Z,96118.28
2023-01-09T13:12:58.994Z,96130.81
2023-01-09T13:15:25.255Z,96130.03
2023-01-09T13:17:51.565Z,96140.44
2023-01-09T13:20:17.930Z,96138.38
2023-01-09T13:22:44.339Z,96113.63
2023-01-09T13:25:11.337Z,96125.66
2023-01-09T13:27:37.637Z,96128.09
2023-01-09T13:30:03.960Z,96129.16
2023-01-09T13:32:30.244Z,96135.28
2023-01-09T13:34:56.501Z,96139.06
2023-01-09T13:37:23.029Z,96139.81
2023-01-09T13:39:49.734Z,96140.63
2023-01-09T13:42:16.589Z,96147.53
2023-01-09T13:44:42.888Z,96150.19
2023-01-09T13:47:09.140Z,96152.09
2023-01-09T13:49:36.011Z,96154.25
2023-01-09T13:52:02.393Z,96158.47
2023-01-09T13:54:28.643Z,96156.09
2023-01-09T13:56:54.923Z,96163.28
2023-01-09T13:59:21.461Z,96163.28
2023-01-09T14:01:47.749Z,96157.97
2023-01-09T14:04:15.068Z,96155.81
2023-01-09T14:06:41.475Z,96166.19
2023-01-09T14:09:07.981Z,96160.84
2023-01-09T14:11:34.456Z,96171.25
2023-01-09T14:14:03.547Z,96171.69
2023-01-09T14:16:29.962Z,96177.31
2023-01-09T14:18:57.007Z,96176.47
2023-01-09T14:21:24.085Z,96172.19
2023-01-09T14:23:53.188Z,96183.94
2023-01-09T14:26:20.247Z,96181.00
2023-01-09T14:28:47.810Z,96185.00
2023-01-09T14:31:14.253Z,96185.53
2023-01-09T14:33:41.454Z,96197.00
2023-01-09T14:36:07.716Z,96200.75
2023-01-09T14:38:33.980Z,96203.97
2023-01-09T14:41:00.222Z,96217.56
2023-01-09T14:43:27.406Z,96214.38
2023-01-09T14:45:53.704Z,96222.66
2023-01-09T14:48:20.015Z,96231.75
2023-01-09T14:50:46.633Z,96233.09
2023-01-09T14:53:12.936Z,96232.56
2023-01-09T14:55:39.319Z,96245.13
2023-01-09T14:58:05.952Z,96233.94
2023-01-09T15:00:32.244Z,96242.22
2023-01-09T15:02:59.409Z,96243.56
2023-01-09T15:05:25.691Z,96249.19
2023-01-09T15:07:52.925Z,96250.28
2023-01-09T15:10:19.210Z,96252.41
2023-01-09T15:12:46.033Z,96274.03
2023-01-09T15:15:12.296Z,96268.16
2023-01-09T15:17:39.389Z,96280.16
2023-01-09T15:20:06.529Z,96278.59
2023-01-09T15:22:32.908Z,96292.97
2023-01-09T15:24:59.189Z,96293.25
2023-01-09T15:27:26.179Z,96303.38
2023-01-09T15:29:52.481Z,96306.34
2023-01-09T15:32:19.412Z,96301.28
2023-01-09T15:34:48.883Z,96313.31
2023-01-09T15:37:15.170Z,96315.16
2023-01-09T15:39:42.307Z,96315.16
2023-01-09T15:42:08.612Z,96318.34
2023-01-09T15:44:35.394Z,96324.44
2023-01-09T15:47:01.716Z,96332.97
2023-01-09T15:49:27.981Z,96329.25
2023-01-09T15:51:54.653Z,96333.22
2023-01-09T15:54:20.974Z,96340.16
2023-01-09T15:56:47.330Z,96340.63
2023-01-09T15:59:14.149Z,96343.81
2023-01-09T16:01:40.778Z,96349.69
2023-01-09T16:04:07.053Z,96349.69
2023-01-09T16:06:33.371Z,96357.38
2023-01-09T16:08:59.717Z,96363.53
2023-01-09T16:11:26.548Z,96368.06
2023-01-09T16:13:52.935Z,96360.06
2023-01-09T16:16:19.214Z,96370.72
2023-01-09T16:18:46.036Z,96378.72
2023-01-09T16:21:12.295Z,96371.53
2023-01-09T16:23:39.475Z,96371.22
2023-01-09T16:26:05.872Z,96384.56
2023-01-09T16:28:32.138Z,96395.22
2023-01-09T16:30:58.424Z,96401.34
2023-01-09T16:33:24.664Z,96393.34
2023-01-09T16:35:51.554Z,96409.34
2023-01-09T16:38:17.821Z,96401.34
2023-01-09T16:40:44.122Z,96413.59
2023-01-09T16:43:13.430Z,96417.06
2023-01-09T16:45:39.733Z,96419.72
2023-01-09T16:48:06.343Z,96415.19
2023-01-09T16:50:32.603Z,96423.97
2023-01-09T16:52:59.118Z,96424.78
2023-01-09T16:55:25.402Z,96429.81
2023-01-09T16:57:53.600Z,96429.06
2023-01-09T17:00:19.888Z,96432.50
2023-01-09T17:02:46.303Z,96441.28
2023-01-09T17:05:12.596Z,96439.44
2023-01-09T17:07:38.867Z,96434.09
2023-01-09T17:10:05.129Z,96449.00
2023-01-09T17:12:32.150Z,96446.34
2023-01-09T17:14:58.410Z,96450.63
2023-01-09T17:17:24.659Z,96458.59
2023-01-09T17:19:50.936Z,96466.31
2023-01-09T17:22:17.919Z,96472.44
2023-01-09T17:24:45.969Z,96477.75
2023-01-09T17:27:15.953Z,96489.22
2023-01-09T17:29:43.117Z,96487.38
2023-01-09T17:32:09.615Z,96493.22
2023-01-09T17:34:36.487Z,96493.22
2023-01-09T17:37:04.542Z,96507.06
2023-01-09T17:39:32.819Z,96512.13
2023-01-09T17:41:59.133Z,96510.75
2023-01-09T17:44:25.994Z,96515.81
2023-01-09T17:46:52.272Z,96527.28
2023-01-09T17:49:18.674Z,96525.16
2023-01-09T17:51:44.989Z,96527.53
2023-01-09T17:54:11.298Z,96538.19
2023-01-09T17:56:38.132Z,96537.91
2023-01-09T17:59:04.411Z,96546.44
2023-01-09T18:01:31.647Z,96556.81
2023-01-09T18:03:57.926Z,96560.28
2023-01-09T18:06:24.265Z,96558.44
2023-01-09T18:08:50.625Z,96565.34
2023-01-09T18:11:16.959Z,96560.81
2023-01-09T18:13:43.883Z,96566.94
2023-01-09T18:16:10.243Z,96566.94
2023-01-09T18:18:36.557Z,96574.94
2023-01-09T18:21:02.803Z,96577.59
2023-01-09T18:23:29.093Z,96588.25
2023-01-09T18:25:55.655Z,96594.41
2023-01-09T18:28:22.489Z,96593.59
2023-01-09T18:30:48.745Z,96597.34
2023-01-09T18:33:15.397Z,96600.00
2023-01-09T18:35:41.667Z,96608.00
2023-01-09T18:38:08.041Z,96609.88
2023-01-09T18:40:34.425Z,96603.22
2023-01-09T18:43:00.730Z,96609.34
2023-01-09T18:45:27.134Z,96612.28
2023-01-09T18:47:53.431Z,96622.16
2023-01-09T18:50:19.921Z,96625.88
2023-01-09T18:52:46.161Z,96628.56
2023-01-09T18:55:12.612Z,96629.63
2023-01-09T18:57:38.919Z,96647.22
2023-01-09T19:00:05.214Z,96645.63
2023-01-09T19:02:31.530Z,96648.31
2023-01-09T19:04:57.961Z,96655.22
2023-01-09T19:07:24.856Z,96656.03
2023-01-09T19:09:51.212Z,96659.75
2023-01-09T19:12:17.492Z,96658.97
2023-01-09T19:14:43.761Z,96660.81
2023-01-09T19:17:10.021Z,96666.97
2023-01-09T19:19:37.382Z,96668.00
2023-01-09T19:22:03.765Z,96674.97
2023-01-09T19:24:30.162Z,96679.50
2023-01-09T19:26:57.222Z,96689.88
2023-01-09T19:29:23.500Z,96688.81
2023-01-09T19:31:49.871Z,96692.25
2023-01-09T19:34:16.188Z,96698.41
2023-01-09T19:36:42.511Z,96706.13
2023-01-09T19:39:08.790Z,96711.47
2023-01-09T19:41:35.244Z,96706.66
2023-01-09T19:44:02.364Z,96709.59
2023-01-09T19:46:28.633Z,96710.41
2023-01-09T19:48:54.914Z,96719.19
2023-01-09T19:51:21.190Z,96717.31
2023-01-09T19:53:47.525Z,96725.31
2023-01-09T19:56:13.797Z,96740.50
2023-01-09T19:58:40.376Z,96734.41
2023-01-09T20:01:07.224Z,96744.53
2023-01-09T20:03:33.562Z,96746.41
2023-01-09T20:05:59.954Z,96757.06
2023-01-09T20:08:26.189Z,96767.72
2023-01-09T20:10:52.440Z,96770.66
2023-01-09T20:13:18.751Z,96768.28
2023-01-09T20:15:45.207Z,96775.72
2023-01-09T20:18:11.716Z,96773.06
2023-01-09T20:20:37.966Z,96774.13
2023-01-09T20:23:05.154Z,96785.88
2023-01-09T20:25:31.445Z,96785.31
2023-01-09T20:27:57.735Z,96792.78
2023-01-09T20:30:24.059Z,96792.78
2023-01-09T20:32:50.402Z,96790.41
2023-01-09T20:35:16.761Z,96798.66
2023-01-09T20:37:43.008Z,96810.41
2023-01-09T20:40:09.254Z,96811.47
2023-01-09T20:42:35.566Z,96822.13
2023-01-09T20:45:03.019Z,96825.88
2023-01-09T20:47:29.274Z,96828.53
2023-01-09T20:49:55.555Z,96832.25
2023-01-09T20:52:22.715Z,96840.00
2023-01-09T20:54:49.052Z,96839.19
2023-01-09T20:57:16.275Z,96839.19
2023-01-09T20:59:42.623Z,96840.25
2023-01-09T21:02:08.936Z,96843.97
2023-01-09T21:04:35.216Z,96849.31
2023-01-09T21:07:01.488Z,96847.72
2023-01-09T21:09:27.726Z,96853.06
2023-01-09T21:11:53.998Z,96855.97
2023-01-09T21:14:21.892Z,96859.72
2023-01-09T21:16:54.709Z,96871.19
2023-01-09T21:19:21.404Z,96869.56
2023-01-09T21:21:47.775Z,96881.31
2023-01-09T21:24:14.023Z,96874.34
2023-01-09T21:26:40.400Z,96879.69
2023-01-09T21:29:09.504Z,96881.56
2023-01-09T21:31:36.230Z,96883.97
2023-01-09T21:34:02.494Z,96888.50
2023-01-09T21:36:28.733Z,96882.34
2023-01-09T21:38:55.003Z,96888.50
2023-01-09T21:41:21.638Z,96894.63
2023-01-09T21:43:47.910Z,96885.00
2023-01-09T21:46:14.198Z,96891.97
2023-01-09T21:48:40.526Z,96893.53
2023-01-09T21:51:07.195Z,96903.44
2023-01-09T21:53:33.444Z,96900.78
2023-01-09T21:55:59.695Z,96908.22
2023-01-09T21:58:25.963Z,96911.66
2023-01-09T22:00:52.316Z,96918.88
2023-01-09T22:03:18.593Z,96927.91
2023-01-09T22:05:45.844Z,96944.72
2023-01-09T22:08:12.096Z,96941.25
2023-01-09T22:10:39.228Z,96953.78
2023-01-09T22:13:05.533Z,96956.47
2023-01-09T22:15:31.872Z,96964.47
2023-01-09T22:17:58.124Z,96958.31
2023-01-09T22:20:24.429Z,96961.25
2023-01-09T22:22:50.726Z,96959.63
2023-01-09T22:25:16.994Z,96962.28
2023-01-09T22:27:43.292Z,96971.38
2023-01-09T22:30:09.592Z,96976.69
2023-01-09T22:32:36.775Z,96988.94
2023-01-09T22:35:03.021Z,96988.41
2023-01-09T22:37:29.280Z,96989.22
2023-01-09T22:39:55.522Z,96995.88
2023-01-09T22:42:21.778Z,97010.00
2023-01-09T22:44:51.617Z,97013.47
2023-01-09T22:47:20.025Z,97010.00
2023-01-09T22:49:52.728Z,97020.09
2023-01-09T22:52:19.532Z,97025.44
2023-01-09T22:54:46.379Z,97024.66
2023-01-09T22:57:13.342Z,97032.91
2023-01-09T22:59:39.679Z,97034.22
2023-01-09T23:02:06.129Z,97031.81
2023-01-09T23:04:33.688Z,97036.28
2023-01-09T23:06:59.982Z,97039.94
2023-01-09T23:09:26.431Z,97042.00
2023-01-09T23:11:53.398Z,97043.78
2023-01-09T23:14:19.684Z,97042.94
2023-01-09T23:16:46.363Z,97045.28
2023-01-09T23:19:13.356Z,97036.94
2023-01-09T23:21:39.661Z,97038.38
2023-01-09T23:24:05.982Z,97046.09
2023-01-09T23:26:32.234Z,97045.41
2023-01-09T23:28:58.481Z,97042.09
2023-01-09T23:31:24.739Z,97054.13
2023-01-09T23:33:51.030Z,97052.53
2023-01-09T23:36:18.058Z,97065.22
2023-01-09T23:38:44.910Z,97063.84
2023-01-09T23:41:11.160Z,97064.19
2023-01-09T23:43:38.173Z,97067.44
2023-01-09T23:46:04.742Z,97076.59
2023-01-09T23:48:31.083Z,97085.97
2023-01-09T23:50:58.189Z,97093.59
2023-01-09T23:53:24.494Z,97088.47
2023-01-09T23:55:50.752Z,97090.94
2023-01-09T23:58:17.027Z,97094.41
